Time;durP1;ratioP1;P1;durP2;ratioP2;P2;SDS_P1;SDS_P2;PMS_P1;PMS_P2;Temp;Humidity;BMP_temperature;BMP_pressure;BME280_temperature;BME280_humidity;BME280_pressure;Samples;Min_cycle;Max_cycle;Signal;HPM_P1;HPM_P2
2021/04/03 00:00:28;;;;;;;15.68;4.78;;;8.30;99.90;;;;;;2529765;23;20033;-70
2021/04/03 00:01:28;;;;;;;15.95;4.90;;;8.40;99.90;;;;;;2529716;23;20051;-70
2021/04/03 00:02:29;;;;;;;15.52;4.90;;;8.30;99.90;;;;;;2529938;23;20006;-70
2021/04/03 00:03:30;;;;;;;16.83;4.97;;;8.30;99.90;;;;;;2530739;23;20006;-70
2021/04/03 00:04:31;;;;;;;14.60;4.75;;;8.30;99.90;;;;;;2530598;23;19998;-70
2021/04/03 00:05:32;;;;;;;15.27;4.63;;;8.30;99.90;;;;;;2530330;23;20085;-70
2021/04/03 00:06:33;;;;;;;15.75;5.22;;;8.30;99.90;;;;;;2530451;23;20426;-70
2021/04/03 00:07:33;;;;;;;20.02;4.95;;;8.30;99.90;;;;;;2530644;23;20353;-70
2021/04/03 00:08:34;;;;;;;20.90;5.35;;;8.30;99.90;;;;;;2530763;23;20013;-70
2021/04/03 00:09:34;;;;;;;18.48;5.07;;;8.30;99.90;;;;;;2530310;23;20010;-69
2021/04/03 00:10:41;;;;;;;16.27;4.60;;;8.30;99.90;;;;;;2530846;23;20010;-70
2021/04/03 00:11:42;;;;;;;15.38;4.88;;;8.30;99.90;;;;;;2530429;23;20029;-70
2021/04/03 00:12:43;;;;;;;21.25;6.18;;;8.30;99.90;;;;;;2530095;23;20029;-70
2021/04/03 00:13:43;;;;;;;19.30;5.40;;;8.30;99.90;;;;;;2530544;23;20010;-70
2021/04/03 00:14:46;;;;;;;25.30;6.13;;;8.30;99.90;;;;;;2530741;23;20017;-70
2021/04/03 00:15:47;;;;;;;18.17;5.65;;;8.30;99.90;;;;;;2529910;23;20022;-70
2021/04/03 00:16:47;;;;;;;21.60;5.13;;;8.20;99.90;;;;;;2529692;23;20002;-70
2021/04/03 00:17:48;;;;;;;11.32;4.15;;;8.30;99.90;;;;;;2529478;23;20025;-70
2021/04/03 00:18:48;;;;;;;15.30;5.47;;;8.20;99.90;;;;;;2530622;23;20055;-70
2021/04/03 00:19:54;;;;;;;19.92;5.45;;;8.20;99.90;;;;;;2530520;23;20505;-69
2021/04/03 00:20:55;;;;;;;17.92;5.07;;;8.20;99.90;;;;;;2530666;23;20440;-70
2021/04/03 00:21:55;;;;;;;17.58;5.75;;;8.10;99.90;;;;;;2529597;23;20329;-70
2021/04/03 00:22:57;;;;;;;20.60;6.70;;;8.20;99.90;;;;;;2529011;23;20048;-70
2021/04/03 00:23:57;;;;;;;19.27;5.82;;;8.10;99.90;;;;;;2530394;23;20016;-70
2021/04/03 00:24:58;;;;;;;15.45;5.55;;;8.20;99.90;;;;;;2530737;23;20001;-70
2021/04/03 00:25:58;;;;;;;17.08;5.60;;;8.20;99.90;;;;;;2529641;23;20353;-70
2021/04/03 00:26:59;;;;;;;21.13;6.63;;;8.20;99.90;;;;;;2529593;23;20045;-69
2021/04/03 00:28:00;;;;;;;16.10;6.25;;;8.10;99.90;;;;;;2530359;23;20025;-70
2021/04/03 00:29:01;;;;;;;19.95;6.40;;;8.10;99.90;;;;;;2530490;23;20600;-70
2021/04/03 00:30:14;;;;;;;20.52;6.78;;;8.10;99.90;;;;;;2530295;23;20353;-70
2021/04/03 00:31:14;;;;;;;15.27;5.55;;;8.10;99.90;;;;;;2529368;23;20006;-70
2021/04/03 00:32:15;;;;;;;19.98;7.03;;;8.10;99.90;;;;;;2529230;23;20048;-70
2021/04/03 00:33:16;;;;;;;21.75;6.28;;;8.10;99.90;;;;;;2530566;23;20009;-69
2021/04/03 00:34:16;;;;;;;18.90;6.78;;;8.10;99.90;;;;;;2530658;23;20435;-70
2021/04/03 00:35:21;;;;;;;18.85;5.90;;;8.10;99.90;;;;;;2530414;23;20016;-70
2021/04/03 00:36:22;;;;;;;19.63;6.18;;;8.10;99.90;;;;;;2530458;23;20013;-70
2021/04/03 00:37:22;;;;;;;20.75;6.07;;;8.10;99.90;;;;;;2530403;23;20002;-70
2021/04/03 00:38:23;;;;;;;13.18;5.43;;;8.10;99.90;;;;;;2530461;23;20006;-70
2021/04/03 00:39:23;;;;;;;15.38;5.43;;;8.10;99.90;;;;;;2530637;23;20097;-70
2021/04/03 00:40:33;;;;;;;17.27;4.63;;;8.10;99.90;;;;;;2530616;23;20002;-70
2021/04/03 00:41:33;;;;;;;11.30;4.43;;;8.10;99.90;;;;;;2530288;23;20002;-70
2021/04/03 00:42:34;;;;;;;10.30;4.05;;;8.00;99.90;;;;;;2529807;23;20430;-71
2021/04/03 00:43:35;;;;;;;11.93;4.78;;;8.00;99.90;;;;;;2530181;23;20333;-70
2021/04/03 00:44:35;;;;;;;9.90;3.35;;;8.00;99.90;;;;;;2530370;23;20291;-70
2021/04/03 00:45:36;;;;;;;10.32;3.20;;;8.00;99.90;;;;;;2530544;23;20805;-70
2021/04/03 00:46:36;;;;;;;10.63;4.28;;;8.00;99.90;;;;;;2530038;23;20029;-70
2021/04/03 00:47:37;;;;;;;10.13;3.00;;;8.00;99.90;;;;;;2530571;23;20364;-71
2021/04/03 00:48:38;;;;;;;10.98;3.20;;;8.00;99.90;;;;;;2530288;23;20010;-70
2021/04/03 00:49:39;;;;;;;7.85;3.20;;;8.00;99.90;;;;;;2530681;23;20421;-70
2021/04/03 00:50:43;;;;;;;13.77;3.65;;;7.90;99.90;;;;;;2530474;23;20071;-70
2021/04/03 00:51:43;;;;;;;11.20;3.30;;;7.90;99.90;;;;;;2530351;23;20010;-70
2021/04/03 00:52:45;;;;;;;12.57;3.75;;;7.90;99.90;;;;;;2529855;23;20010;-70
2021/04/03 00:53:45;;;;;;;8.38;2.55;;;7.90;99.90;;;;;;2530334;23;20006;-70
2021/04/03 00:54:46;;;;;;;11.60;3.47;;;7.90;99.90;;;;;;2530569;23;19998;-70
2021/04/03 00:55:47;;;;;;;11.50;3.33;;;7.90;99.90;;;;;;2529593;23;20033;-70
2021/04/03 00:56:47;;;;;;;9.60;2.95;;;7.90;99.90;;;;;;2529549;23;19997;-70
2021/04/03 00:57:48;;;;;;;9.93;3.25;;;7.90;99.90;;;;;;2530478;23;20016;-70
2021/04/03 00:58:49;;;;;;;17.00;3.92;;;7.90;99.90;;;;;;2530623;23;20472;-70
2021/04/03 00:59:50;;;;;;;16.33;4.13;;;7.80;99.90;;;;;;2530428;23;20063;-71
2021/04/03 01:00:51;;;;;;;17.02;3.33;;;7.80;99.90;;;;;;2530356;23;19998;-70
2021/04/03 01:01:52;;;;;;;10.65;3.63;;;7.80;99.90;;;;;;2529923;23;20346;-70
2021/04/03 01:02:53;;;;;;;12.50;3.17;;;7.80;99.90;;;;;;2529920;23;19998;-70
2021/04/03 01:03:55;;;;;;;13.32;4.13;;;7.80;99.90;;;;;;2531331;23;20093;-70
2021/04/03 01:04:55;;;;;;;17.67;3.80;;;7.80;99.90;;;;;;2532358;23;19994;-70
2021/04/03 01:05:56;;;;;;;13.80;3.80;;;7.80;99.90;;;;;;2530790;23;20002;-70
2021/04/03 01:06:56;;;;;;;14.15;3.72;;;7.80;99.90;;;;;;2530370;23;20060;-70
2021/04/03 01:07:57;;;;;;;11.27;3.20;;;7.80;99.90;;;;;;2530262;23;20025;-70
2021/04/03 01:08:57;;;;;;;13.80;4.20;;;7.70;99.90;;;;;;2530602;23;20009;-70
2021/04/03 01:09:58;;;;;;;14.57;4.10;;;7.70;99.90;;;;;;2530307;23;20322;-70
2021/04/03 01:10:59;;;;;;;21.02;5.53;;;7.70;99.90;;;;;;2531397;23;20002;-70
2021/04/03 01:12:24;;;;;;;14.40;3.78;;;7.70;99.90;;;;;;2531947;23;20010;-70
2021/04/03 01:13:41;;;;;;;14.90;4.35;;;7.70;99.90;;;;;;2532298;23;19998;-70
2021/04/03 01:14:53;;;;;;;14.85;3.78;;;7.70;99.90;;;;;;2530506;23;20379;-70
2021/04/03 01:16:09;;;;;;;15.23;3.53;;;7.70;99.90;;;;;;2530046;23;20109;-70
2021/04/03 01:17:26;;;;;;;15.95;4.55;;;7.60;99.90;;;;;;2529854;23;19998;-70
2021/04/03 01:18:41;;;;;;;17.13;4.95;;;7.70;99.90;;;;;;2530562;23;20006;-70
2021/04/03 01:20:06;;;;;;;19.83;4.68;;;7.60;99.90;;;;;;2530456;23;19998;-70
2021/04/03 01:21:06;;;;;;;16.52;4.20;;;7.60;99.90;;;;;;2530551;23;20010;-70
2021/04/03 01:22:13;;;;;;;19.45;3.90;;;7.60;99.90;;;;;;2529623;23;20030;-70
2021/04/03 01:23:19;;;;;;;16.67;3.83;;;7.60;99.90;;;;;;2530577;23;20002;-70
2021/04/03 01:24:46;;;;;;;14.20;4.15;;;7.60;99.90;;;;;;2530484;23;20008;-70
2021/04/03 01:26:27;;;;;;;16.35;4.40;;;7.60;99.90;;;;;;2532298;23;20002;-70
2021/04/03 01:27:28;;;;;;;22.60;5.07;;;7.50;99.90;;;;;;2554855;23;20005;-70
2021/04/03 01:28:43;;;;;;;19.45;4.35;;;7.50;99.90;;;;;;2553016;23;20315;-70
2021/04/03 01:30:05;;;;;;;18.25;4.68;;;7.50;99.90;;;;;;2530379;23;20006;-70
2021/04/03 01:31:07;;;;;;;18.65;4.13;;;7.50;99.90;;;;;;2530272;23;20056;-70
2021/04/03 01:32:09;;;;;;;19.70;3.90;;;7.50;99.90;;;;;;2530049;23;20430;-70
2021/04/03 01:33:11;;;;;;;20.00;3.50;;;7.50;99.90;;;;;;2531118;23;20010;-70
2021/04/03 01:34:20;;;;;;;18.73;4.20;;;7.50;99.90;;;;;;2532209;23;20006;-70
2021/04/03 01:35:45;;;;;;;18.38;5.10;;;7.50;99.90;;;;;;2530410;23;20006;-70
2021/04/03 01:36:48;;;;;;;12.18;3.42;;;7.50;99.90;;;;;;2529547;23;20006;-70
2021/04/03 01:37:54;;;;;;;13.55;3.90;;;7.50;99.90;;;;;;2530139;23;20333;-70
2021/04/03 01:39:10;;;;;;;12.95;3.45;;;7.50;99.90;;;;;;2530024;23;20010;-70
2021/04/03 01:40:16;;;;;;;16.48;3.97;;;7.50;99.90;;;;;;2531466;23;20049;-70
2021/04/03 01:41:21;;;;;;;15.55;4.40;;;7.50;99.90;;;;;;2531859;23;20010;-70
2021/04/03 01:42:25;;;;;;;17.10;3.92;;;7.50;99.90;;;;;;2531768;23;20002;-70
2021/04/03 01:43:31;;;;;;;19.77;4.10;;;7.50;99.90;;;;;;2531954;23;20002;-70
2021/04/03 01:44:36;;;;;;;17.52;3.88;;;7.50;99.90;;;;;;2530557;23;20353;-70
2021/04/03 01:45:40;;;;;;;18.20;3.95;;;7.60;99.90;;;;;;2529987;23;20147;-70
2021/04/03 01:46:43;;;;;;;13.65;3.92;;;7.50;99.90;;;;;;2529917;23;20012;-70
2021/04/03 01:47:45;;;;;;;21.73;3.92;;;7.50;99.90;;;;;;2530308;23;20175;-70
2021/04/03 01:48:45;;;;;;;12.07;3.33;;;7.50;99.90;;;;;;2530400;23;20434;-70
2021/04/03 01:49:52;;;;;;;14.60;3.75;;;7.50;99.90;;;;;;2530582;23;20369;-70
2021/04/03 01:50:53;;;;;;;17.00;4.25;;;7.60;99.90;;;;;;2531432;23;20002;-70
2021/04/03 01:51:55;;;;;;;17.45;4.30;;;7.50;99.90;;;;;;2532034;23;20186;-70
2021/04/03 01:52:56;;;;;;;18.80;4.25;;;7.60;99.90;;;;;;2530266;23;20330;-70
2021/04/03 01:53:59;;;;;;;15.88;3.38;;;7.50;99.90;;;;;;2530345;23;20029;-70
2021/04/03 01:55:07;;;;;;;15.90;4.85;;;7.50;99.90;;;;;;2529244;23;20006;-71
2021/04/03 01:56:10;;;;;;;14.55;4.40;;;7.60;99.90;;;;;;2530153;23;20406;-70
2021/04/03 01:57:11;;;;;;;21.00;4.30;;;7.60;99.90;;;;;;2530326;23;20002;-70
2021/04/03 01:58:12;;;;;;;21.10;5.03;;;7.60;99.90;;;;;;2530249;23;20003;-70
2021/04/03 01:59:14;;;;;;;14.18;4.70;;;7.60;99.90;;;;;;2529759;23;20002;-70
2021/04/03 02:00:21;;;;;;;18.73;4.15;;;7.60;99.90;;;;;;2530330;23;20414;-70
2021/04/03 02:01:22;;;;;;;19.38;4.00;;;7.60;99.90;;;;;;2531901;23;20002;-70
2021/04/03 02:02:23;;;;;;;14.88;3.70;;;7.60;99.90;;;;;;2531215;23;20005;-70
2021/04/03 02:03:24;;;;;;;11.93;3.92;;;7.60;99.90;;;;;;2530500;23;20082;-70
2021/04/03 02:04:26;;;;;;;21.27;4.50;;;7.60;99.90;;;;;;2530978;23;20002;-70
2021/04/03 02:05:27;;;;;;;15.18;3.90;;;7.60;99.90;;;;;;2531734;23;20002;-70
2021/04/03 02:06:29;;;;;;;24.10;4.65;;;7.60;99.90;;;;;;2531872;23;20009;-70
2021/04/03 02:07:29;;;;;;;21.20;3.90;;;7.60;99.90;;;;;;2531603;23;20013;-70
2021/04/03 02:08:31;;;;;;;19.40;4.20;;;7.60;99.90;;;;;;2531620;23;20433;-70
2021/04/03 02:09:32;;;;;;;14.98;3.47;;;7.60;99.90;;;;;;2530831;23;20010;-70
2021/04/03 02:10:34;;;;;;;16.58;4.38;;;7.60;99.90;;;;;;2531204;23;20002;-70
2021/04/03 02:11:38;;;;;;;13.63;3.80;;;7.60;99.90;;;;;;2531581;23;20087;-70
2021/04/03 02:12:40;;;;;;;14.82;3.95;;;7.60;99.90;;;;;;2530307;23;20037;-71
2021/04/03 02:13:41;;;;;;;21.77;4.28;;;7.60;99.90;;;;;;2531535;23;20012;-70
2021/04/03 02:14:44;;;;;;;18.70;4.15;;;7.60;99.90;;;;;;2532049;23;20005;-70
2021/04/03 02:15:46;;;;;;;20.02;4.28;;;7.60;99.90;;;;;;2531457;23;20094;-70
2021/04/03 02:16:50;;;;;;;22.00;4.88;;;7.60;99.90;;;;;;2531693;23;20078;-70
2021/04/03 02:17:55;;;;;;;14.05;3.90;;;7.60;99.90;;;;;;2531317;23;20471;-70
2021/04/03 02:18:56;;;;;;;18.05;4.18;;;7.60;99.90;;;;;;2531772;23;20077;-70
2021/04/03 02:19:57;;;;;;;14.48;3.70;;;7.60;99.90;;;;;;2531469;23;20036;-70
2021/04/03 02:21:05;;;;;;;18.42;4.40;;;7.60;99.90;;;;;;2531818;23;20044;-70
2021/04/03 02:22:05;;;;;;;16.58;3.38;;;7.60;99.90;;;;;;2531293;23;20017;-70
2021/04/03 02:23:06;;;;;;;15.38;3.38;;;7.60;99.90;;;;;;2531696;23;20009;-70
2021/04/03 02:24:08;;;;;;;13.88;4.32;;;7.60;99.90;;;;;;2531443;23;20006;-70
2021/04/03 02:25:14;;;;;;;17.23;3.95;;;7.60;99.90;;;;;;2531785;23;19998;-70
2021/04/03 02:26:15;;;;;;;17.50;4.40;;;7.60;99.90;;;;;;2531131;23;20005;-70
2021/04/03 02:27:15;;;;;;;16.63;4.72;;;7.60;99.90;;;;;;2531866;23;20085;-70
2021/04/03 02:28:16;;;;;;;21.88;5.15;;;7.60;99.90;;;;;;2531535;23;20418;-70
2021/04/03 02:29:17;;;;;;;18.42;4.07;;;7.60;99.90;;;;;;2531827;23;20056;-70
2021/04/03 02:30:22;;;;;;;21.85;4.18;;;7.60;99.90;;;;;;2531802;23;20422;-70
2021/04/03 02:31:22;;;;;;;19.92;3.97;;;7.50;99.90;;;;;;2531642;23;19998;-70
2021/04/03 02:32:23;;;;;;;20.85;4.15;;;7.50;99.90;;;;;;2530742;23;19998;-70
2021/04/03 02:33:23;;;;;;;18.73;3.80;;;7.50;99.90;;;;;;2531690;23;20002;-70
2021/04/03 02:34:24;;;;;;;24.05;4.50;;;7.50;99.90;;;;;;2531243;23;20085;-70
2021/04/03 02:35:27;;;;;;;23.88;4.80;;;7.50;99.90;;;;;;2531891;23;20006;-70
2021/04/03 02:36:27;;;;;;;14.05;3.97;;;7.50;99.90;;;;;;2531517;23;20326;-70
2021/04/03 02:37:28;;;;;;;15.77;3.70;;;7.60;99.90;;;;;;2531808;23;20002;-70
2021/04/03 02:38:28;;;;;;;20.17;4.30;;;7.60;99.90;;;;;;2531240;23;20083;-70
2021/04/03 02:39:29;;;;;;;16.83;3.92;;;7.60;99.90;;;;;;2532124;23;20006;-70
2021/04/03 02:40:32;;;;;;;15.32;4.00;;;7.60;99.90;;;;;;2532348;23;20017;-70
2021/04/03 02:41:48;;;;;;;16.75;4.07;;;7.60;99.90;;;;;;2532129;23;20106;-70
2021/04/03 02:42:56;;;;;;;19.95;4.22;;;7.50;99.90;;;;;;2531314;23;20004;-71
2021/04/03 02:44:35;;;;;;;18.00;3.53;;;7.50;99.90;;;;;;2532565;23;20056;-70
2021/04/03 02:45:40;;;;;;;16.30;3.42;;;7.50;99.90;;;;;;2542715;23;20410;-70
2021/04/03 02:46:46;;;;;;;18.00;3.58;;;7.50;99.90;;;;;;2531885;23;20009;-70
2021/04/03 02:47:58;;;;;;;14.60;4.07;;;7.50;99.90;;;;;;2532296;23;20322;-70
2021/04/03 02:49:03;;;;;;;19.33;3.63;;;7.50;99.90;;;;;;2531707;23;20367;-70
2021/04/03 02:50:08;;;;;;;18.42;3.70;;;7.50;99.90;;;;;;2532144;23;20013;-70
2021/04/03 02:51:12;;;;;;;17.65;4.38;;;7.50;99.90;;;;;;2531763;23;20075;-70
2021/04/03 02:52:13;;;;;;;11.77;3.47;;;7.50;99.90;;;;;;2531372;23;20002;-70
2021/04/03 02:53:16;;;;;;;19.75;3.80;;;7.50;99.90;;;;;;2532138;23;20032;-70
2021/04/03 02:54:20;;;;;;;20.02;4.18;;;7.50;99.90;;;;;;2532142;23;20006;-70
2021/04/03 02:55:26;;;;;;;19.15;3.42;;;7.50;99.90;;;;;;2532000;23;20006;-70
2021/04/03 02:56:29;;;;;;;17.63;4.38;;;7.60;99.90;;;;;;2532266;23;20069;-70
2021/04/03 02:57:31;;;;;;;17.13;3.75;;;7.60;99.90;;;;;;2532288;23;20077;-70
2021/04/03 02:58:36;;;;;;;17.88;3.67;;;7.60;99.90;;;;;;2532382;23;20448;-70
2021/04/03 02:59:40;;;;;;;15.40;3.60;;;7.60;99.90;;;;;;2531855;23;20022;-70
2021/04/03 03:00:42;;;;;;;18.17;4.10;;;7.60;99.90;;;;;;2532148;23;20499;-70
2021/04/03 03:01:45;;;;;;;14.50;3.53;;;7.60;99.90;;;;;;2531469;23;20081;-70
2021/04/03 03:02:48;;;;;;;16.38;3.50;;;7.60;99.90;;;;;;2530419;23;20005;-70
2021/04/03 03:03:50;;;;;;;18.27;4.50;;;7.60;99.90;;;;;;2530626;23;20512;-70
2021/04/03 03:04:53;;;;;;;19.65;3.75;;;7.60;99.90;;;;;;2530953;23;20361;-70
2021/04/03 03:05:57;;;;;;;21.17;4.00;;;7.60;99.90;;;;;;2530737;23;20006;-70
2021/04/03 03:06:58;;;;;;;15.73;3.85;;;7.70;99.90;;;;;;2529726;23;20082;-70
2021/04/03 03:08:02;;;;;;;14.48;3.63;;;7.60;99.90;;;;;;2530539;23;20009;-70
2021/04/03 03:09:04;;;;;;;18.65;4.20;;;7.60;99.90;;;;;;2530658;23;20006;-70
2021/04/03 03:10:06;;;;;;;16.48;3.63;;;7.60;99.90;;;;;;2530321;23;20017;-70
2021/04/03 03:11:08;;;;;;;21.27;3.95;;;7.60;99.90;;;;;;2530831;23;20002;-70
2021/04/03 03:12:12;;;;;;;17.67;3.60;;;7.60;99.90;;;;;;2529889;23;20009;-70
2021/04/03 03:13:19;;;;;;;15.82;3.45;;;7.60;99.90;;;;;;2529744;23;20044;-70
2021/04/03 03:14:22;;;;;;;20.17;3.55;;;7.60;99.90;;;;;;2529990;23;20010;-70
2021/04/03 03:15:27;;;;;;;14.90;3.97;;;7.60;99.90;;;;;;2531030;23;20003;-70
2021/04/03 03:16:29;;;;;;;17.63;3.88;;;7.70;99.90;;;;;;2530588;23;20005;-70
2021/04/03 03:17:30;;;;;;;18.30;3.72;;;7.70;99.90;;;;;;2530485;23;20002;-70
2021/04/03 03:18:31;;;;;;;18.35;4.53;;;7.70;99.90;;;;;;2530370;23;20454;-70
2021/04/03 03:19:32;;;;;;;18.80;4.03;;;7.60;99.90;;;;;;2529362;23;20029;-70
2021/04/03 03:20:33;;;;;;;23.65;4.43;;;7.70;99.90;;;;;;2529831;23;20060;-71
2021/04/03 03:21:35;;;;;;;14.32;3.47;;;7.70;99.90;;;;;;2530702;23;19995;-70
2021/04/03 03:22:37;;;;;;;13.05;3.83;;;7.60;99.90;;;;;;2529562;23;20089;-72
2021/04/03 03:23:38;;;;;;;15.55;3.53;;;7.60;99.90;;;;;;2530831;23;19998;-70
2021/04/03 03:24:39;;;;;;;19.40;3.83;;;7.70;99.90;;;;;;2530462;23;20002;-70
2021/04/03 03:25:40;;;;;;;17.75;3.80;;;7.70;99.90;;;;;;2530503;23;20006;-70
2021/04/03 03:26:41;;;;;;;18.02;4.78;;;7.70;99.90;;;;;;2530520;23;20034;-70
2021/04/03 03:27:45;;;;;;;14.38;3.72;;;7.70;99.90;;;;;;2530755;23;20068;-70
2021/04/03 03:28:48;;;;;;;13.13;3.45;;;7.60;99.90;;;;;;2529491;23;19998;-70
2021/04/03 03:29:51;;;;;;;22.20;4.40;;;7.70;99.90;;;;;;2529867;23;20013;-70
2021/04/03 03:30:52;;;;;;;13.43;3.15;;;7.70;99.90;;;;;;2530043;23;20009;-70
2021/04/03 03:31:54;;;;;;;18.42;4.25;;;7.70;99.90;;;;;;2530886;23;20002;-70
2021/04/03 03:32:54;;;;;;;19.60;4.22;;;7.70;99.90;;;;;;2529699;23;20009;-70
2021/04/03 03:33:55;;;;;;;21.45;5.15;;;7.60;99.90;;;;;;2530869;23;20096;-70
2021/04/03 03:34:57;;;;;;;15.82;4.07;;;7.60;99.90;;;;;;2530152;23;20002;-70
2021/04/03 03:35:58;;;;;;;19.88;3.80;;;7.60;99.90;;;;;;2530423;23;20069;-70
2021/04/03 03:37:00;;;;;;;19.08;4.28;;;7.60;99.90;;;;;;2530317;23;20021;-70
2021/04/03 03:38:00;;;;;;;18.88;4.10;;;7.70;99.90;;;;;;2529773;23;20014;-70
2021/04/03 03:39:06;;;;;;;21.17;4.00;;;7.70;99.90;;;;;;2529716;23;20085;-70
2021/04/03 03:40:07;;;;;;;17.02;3.25;;;7.60;99.90;;;;;;2529964;23;20009;-70
2021/04/03 03:41:09;;;;;;;17.90;3.92;;;7.60;99.90;;;;;;2529358;23;20338;-70
2021/04/03 03:42:10;;;;;;;12.10;3.83;;;7.60;99.90;;;;;;2529863;23;20304;-70
2021/04/03 03:43:16;;;;;;;15.18;3.60;;;7.60;99.90;;;;;;2530127;23;20374;-70
2021/04/03 03:44:17;;;;;;;11.75;3.58;;;7.60;99.90;;;;;;2530461;23;19998;-70
2021/04/03 03:45:20;;;;;;;15.48;4.15;;;7.60;99.90;;;;;;2530546;23;20006;-70
2021/04/03 03:46:21;;;;;;;13.68;3.88;;;7.60;99.90;;;;;;2530352;23;20021;-70
2021/04/03 03:47:21;;;;;;;19.80;4.40;;;7.60;99.90;;;;;;2530609;23;20085;-70
2021/04/03 03:48:22;;;;;;;16.38;3.88;;;7.60;99.90;;;;;;2530859;23;20051;-70
2021/04/03 03:49:22;;;;;;;14.95;3.47;;;7.60;99.90;;;;;;2530565;23;20369;-70
2021/04/03 03:50:23;;;;;;;17.40;3.38;;;7.60;99.90;;;;;;2530272;23;20033;-70
2021/04/03 03:51:23;;;;;;;14.77;4.10;;;7.60;99.90;;;;;;2530297;23;20388;-70
2021/04/03 03:52:24;;;;;;;15.68;3.78;;;7.60;99.90;;;;;;2529847;23;20099;-70
2021/04/03 03:53:25;;;;;;;22.15;4.78;;;7.70;99.90;;;;;;2530599;23;20013;-70
2021/04/03 03:54:25;;;;;;;19.80;4.32;;;7.70;99.90;;;;;;2530554;23;20085;-70
2021/04/03 03:55:26;;;;;;;19.23;3.78;;;7.60;99.90;;;;;;2530451;23;20006;-70
2021/04/03 03:56:26;;;;;;;24.10;3.45;;;7.70;99.90;;;;;;2530579;23;20017;-70
2021/04/03 03:57:27;;;;;;;19.88;4.15;;;7.70;99.90;;;;;;2530560;23;20002;-70
2021/04/03 03:58:27;;;;;;;14.80;3.42;;;7.70;99.90;;;;;;2530907;23;20059;-70
2021/04/03 03:59:28;;;;;;;13.30;3.67;;;7.70;99.90;;;;;;2530295;23;20033;-70
2021/04/03 04:00:29;;;;;;;21.48;4.50;;;7.70;99.90;;;;;;2530548;23;20002;-70
2021/04/03 04:01:29;;;;;;;17.05;3.95;;;7.70;99.90;;;;;;2529699;23;20088;-70
2021/04/03 04:02:30;;;;;;;19.63;4.25;;;7.70;99.90;;;;;;2528859;23;20440;-70
2021/04/03 04:03:31;;;;;;;20.85;4.07;;;7.70;99.90;;;;;;2530510;23;20006;-70
2021/04/03 04:04:31;;;;;;;16.67;4.10;;;7.70;99.90;;;;;;2530468;23;20055;-70
2021/04/03 04:05:32;;;;;;;19.73;4.20;;;7.70;99.90;;;;;;2530579;23;20077;-70
2021/04/03 04:06:32;;;;;;;21.15;4.60;;;7.70;99.90;;;;;;2530496;23;20015;-70
2021/04/03 04:07:35;;;;;;;16.55;3.88;;;7.60;99.90;;;;;;2530670;23;20006;-70
2021/04/03 04:08:35;;;;;;;18.85;3.58;;;7.60;99.90;;;;;;2530508;23;20322;-70
2021/04/03 04:09:36;;;;;;;14.82;4.22;;;7.60;99.90;;;;;;2530629;23;20111;-70
2021/04/03 04:10:37;;;;;;;15.13;3.25;;;7.60;99.90;;;;;;2530390;23;20314;-70
2021/04/03 04:11:37;;;;;;;21.33;4.03;;;7.60;99.90;;;;;;2530821;23;20429;-70
2021/04/03 04:12:38;;;;;;;14.55;3.60;;;7.60;99.90;;;;;;2529817;23;20087;-70
2021/04/03 04:13:38;;;;;;;15.30;3.80;;;7.60;99.90;;;;;;2530713;23;20029;-70
2021/04/03 04:14:39;;;;;;;17.23;3.65;;;7.60;99.90;;;;;;2530643;23;20010;-70
2021/04/03 04:15:39;;;;;;;14.93;3.33;;;7.60;99.90;;;;;;2530730;23;20021;-70
2021/04/03 04:16:40;;;;;;;19.08;4.47;;;7.60;99.90;;;;;;2530293;23;20021;-70
2021/04/03 04:17:40;;;;;;;18.60;3.90;;;7.60;99.90;;;;;;2530660;23;19998;-70
2021/04/03 04:18:41;;;;;;;18.02;3.60;;;7.60;99.90;;;;;;2530442;23;20020;-70
2021/04/03 04:19:41;;;;;;;19.65;4.30;;;7.60;99.90;;;;;;2530902;23;20295;-70
2021/04/03 04:20:42;;;;;;;22.35;4.47;;;7.60;99.90;;;;;;2530263;23;20124;-70
2021/04/03 04:21:42;;;;;;;22.58;4.10;;;7.60;99.90;;;;;;2530652;23;20010;-70
2021/04/03 04:22:43;;;;;;;16.60;3.53;;;7.60;99.90;;;;;;2529721;23;20307;-70
2021/04/03 04:23:45;;;;;;;21.00;3.83;;;7.60;99.90;;;;;;2530481;23;20002;-70
2021/04/03 04:24:45;;;;;;;13.55;3.22;;;7.60;99.90;;;;;;2530334;23;20021;-70
2021/04/03 04:25:46;;;;;;;24.10;4.60;;;7.60;99.90;;;;;;2530592;23;20484;-70
2021/04/03 04:26:47;;;;;;;22.08;3.88;;;7.60;99.90;;;;;;2530353;23;20052;-70
2021/04/03 04:27:47;;;;;;;19.20;3.80;;;7.50;99.90;;;;;;2530650;23;20425;-70
2021/04/03 04:28:48;;;;;;;12.32;3.10;;;7.60;99.90;;;;;;2529269;23;20331;-70
2021/04/03 04:29:48;;;;;;;30.52;4.78;;;7.50;99.90;;;;;;2517673;23;20041;-70
2021/04/03 04:30:49;;;;;;;20.80;4.07;;;7.50;99.90;;;;;;2529560;23;20001;-70
2021/04/03 04:31:50;;;;;;;17.95;3.92;;;7.50;99.90;;;;;;2529880;23;20124;-70
2021/04/03 04:32:50;;;;;;;20.90;3.90;;;7.50;99.90;;;;;;2528815;23;20005;-70
2021/04/03 04:33:51;;;;;;;16.98;3.33;;;7.50;99.90;;;;;;2530573;23;20010;-70
2021/04/03 04:34:51;;;;;;;16.80;3.70;;;7.50;99.90;;;;;;2530647;23;19998;-70
2021/04/03 04:35:52;;;;;;;18.90;5.20;;;7.50;99.90;;;;;;2532141;23;20010;-70
2021/04/03 04:36:52;;;;;;;16.55;4.53;;;7.50;99.90;;;;;;2532374;23;20026;-69
2021/04/03 04:37:53;;;;;;;14.45;3.67;;;7.40;99.90;;;;;;2532148;23;20048;-70
2021/04/03 04:38:53;;;;;;;18.75;3.97;;;7.40;99.80;;;;;;2532178;23;20401;-70
2021/04/03 04:39:54;;;;;;;14.25;4.32;;;7.40;99.50;;;;;;2530727;23;20010;-70
2021/04/03 04:40:54;;;;;;;18.95;4.05;;;7.40;99.70;;;;;;2530233;23;20028;-70
2021/04/03 04:41:55;;;;;;;13.93;4.10;;;7.40;99.90;;;;;;2530430;23;20375;-70
2021/04/03 04:42:57;;;;;;;18.73;4.45;;;7.40;99.90;;;;;;2529898;23;20052;-70
2021/04/03 04:43:58;;;;;;;12.57;3.80;;;7.40;99.90;;;;;;2530580;23;20009;-70
2021/04/03 04:44:59;;;;;;;16.67;3.72;;;7.40;99.90;;;;;;2531123;23;19998;-70
2021/04/03 04:45:59;;;;;;;19.23;4.00;;;7.30;99.90;;;;;;2530272;23;20388;-70
2021/04/03 04:47:00;;;;;;;14.60;4.00;;;7.30;99.90;;;;;;2530500;23;20002;-70
2021/04/03 04:48:00;;;;;;;16.08;4.13;;;7.30;99.60;;;;;;2530101;23;20006;-70
2021/04/03 04:49:01;;;;;;;13.50;3.63;;;7.30;99.80;;;;;;2530336;23;20089;-70
2021/04/03 04:50:03;;;;;;;16.95;3.78;;;7.30;99.80;;;;;;2530436;23;20084;-70
2021/04/03 04:51:04;;;;;;;16.27;4.03;;;7.30;99.90;;;;;;2530651;23;20002;-70
2021/04/03 04:52:05;;;;;;;15.27;3.90;;;7.30;99.90;;;;;;2529838;23;20487;-70
2021/04/03 04:53:06;;;;;;;14.02;3.40;;;7.30;99.90;;;;;;2529962;23;20030;-70
2021/04/03 04:54:07;;;;;;;16.10;4.15;;;7.30;99.90;;;;;;2530952;23;20002;-70
2021/04/03 04:55:08;;;;;;;15.55;4.32;;;7.20;99.90;;;;;;2532300;23;20002;-70
2021/04/03 04:56:08;;;;;;;15.68;3.90;;;7.20;99.90;;;;;;2532067;23;20393;-70
2021/04/03 04:57:09;;;;;;;19.88;3.65;;;7.20;99.90;;;;;;2532351;23;20411;-70
2021/04/03 04:58:10;;;;;;;17.63;4.15;;;7.20;99.90;;;;;;2531549;23;19998;-70
2021/04/03 04:59:10;;;;;;;21.58;3.63;;;7.20;99.90;;;;;;2530208;23;20032;-70
2021/04/03 05:00:11;;;;;;;23.75;4.65;;;7.10;99.90;;;;;;2530697;23;20002;-70
2021/04/03 05:01:12;;;;;;;15.90;4.03;;;7.10;99.90;;;;;;2530243;23;20005;-69
2021/04/03 05:02:12;;;;;;;21.38;4.43;;;7.10;99.90;;;;;;2529653;23;20013;-69
2021/04/03 05:03:13;;;;;;;21.90;4.68;;;7.00;99.90;;;;;;2530044;23;20373;-69
2021/04/03 05:04:14;;;;;;;18.95;5.03;;;7.00;99.90;;;;;;2530301;23;20437;-69
2021/04/03 05:05:14;;;;;;;14.82;3.53;;;7.00;99.90;;;;;;2530437;23;20033;-73
2021/04/03 05:06:15;;;;;;;18.33;4.07;;;7.00;99.90;;;;;;2530478;23;20002;-70
2021/04/03 05:07:16;;;;;;;21.70;4.07;;;7.00;99.90;;;;;;2530326;23;20437;-69
2021/04/03 05:08:16;;;;;;;15.27;4.38;;;7.00;99.90;;;;;;2530007;23;20013;-70
2021/04/03 05:09:17;;;;;;;12.95;3.58;;;7.00;99.90;;;;;;2530517;23;20064;-70
2021/04/03 05:10:18;;;;;;;18.00;4.18;;;6.90;99.90;;;;;;2530199;23;20464;-70
2021/04/03 05:11:18;;;;;;;16.98;4.47;;;7.00;99.90;;;;;;2530445;23;20069;-70
2021/04/03 05:12:19;;;;;;;17.02;3.60;;;6.90;99.90;;;;;;2529790;23;20002;-70
2021/04/03 05:13:19;;;;;;;19.92;4.65;;;6.90;99.90;;;;;;2530538;23;20002;-69
2021/04/03 05:14:20;;;;;;;17.80;4.90;;;6.90;99.90;;;;;;2530669;23;20002;-69
2021/04/03 05:15:20;;;;;;;17.27;4.30;;;6.90;99.90;;;;;;2530013;23;20010;-70
2021/04/03 05:16:21;;;;;;;13.40;3.40;;;6.90;99.90;;;;;;2530505;23;20085;-71
2021/04/03 05:17:22;;;;;;;21.65;4.95;;;6.90;99.90;;;;;;2530173;23;20358;-70
2021/04/03 05:18:23;;;;;;;24.20;4.10;;;6.90;99.90;;;;;;2530190;23;20002;-70
2021/04/03 05:19:24;;;;;;;23.30;5.25;;;6.90;99.90;;;;;;2529257;23;20006;-70
2021/04/03 05:20:24;;;;;;;19.92;3.83;;;6.90;99.90;;;;;;2530466;23;20306;-70
2021/04/03 05:21:25;;;;;;;19.92;4.82;;;6.90;99.90;;;;;;2530258;23;20115;-70
2021/04/03 05:22:25;;;;;;;14.25;3.75;;;6.90;99.90;;;;;;2529453;23;20085;-70
2021/04/03 05:23:26;;;;;;;15.63;4.13;;;6.90;99.90;;;;;;2531659;23;20014;-70
2021/04/03 05:24:26;;;;;;;13.02;3.53;;;6.80;99.90;;;;;;2532011;23;20055;-70
2021/04/03 05:25:27;;;;;;;20.13;4.40;;;6.80;99.90;;;;;;2532015;23;20009;-70
2021/04/03 05:26:27;;;;;;;12.48;3.72;;;6.90;99.90;;;;;;2532252;23;20002;-69